目前分類:電源專區 (137)

瀏覽方式: 標題列表 簡短摘要
發表時間 文章標題 人氣 留言
2017-07-17 置頂 Cooler Master MasterWatt Maker 1200 MIJ電源供應器-測試篇 (1374) (2)
2017-07-11 置頂 Cooler Master MasterWatt Maker 1200 MIJ電源供應器-解析篇 (3081) (5)
2017-09-29 全漢Hydro PT皇鈦極V 750W簡介及測試 (331) (0)
2017-09-22 Thermaltake ToughPower Grand RGB 850測試 (128) (0)
2017-09-22 全漢皇鈦極AURUM PT-1000FM測試 (166) (0)
2017-09-22 振華Leadex Titanium 750W電源供應器測試 (395) (0)
2017-09-21 銅牌加雙DC-DC的Antec Neo ECO II 650W測試 (267) (0)
2017-09-21 Antec EDGE 650全模組化電源供應器測試 (211) (0)
2017-09-07 振華LEADEX PLATINUM 1000W電源供應器測試 (396) (0)
2017-09-07 Antec High Current Pro 850 Platinum電源供應器測試 (258) (0)
2017-08-27 Thermaltake ToughPower Grand RGB 850拆解 (566) (2)
2017-08-25 Antec EDGE 650全模組化電源供應器拆解 (928) (0)
2017-08-12 全漢皇鈦極AURUM PT-1000FM拆解 (722) (1)
2017-08-11 小瓦數金牌Antec TruePower Classic 450W拆解 (765) (0)
2017-08-10 銅牌加雙DC-DC的Antec Neo ECO II 650W拆解 (1203) (2)
2017-08-06 振華白金冰蝶750W拆解 (1067) (0)
2017-08-05 振華LEADEX PLATINUM 1000W電源供應器拆解 (1705) (0)
2017-08-04 Antec High Current Pro 850 Platinum電源供應器拆解 (1075) (0)
2013-04-03 海韻金牌G系列550W模組化電源供應器簡介及測試 (30451) (20)
2013-03-23 Thermaltake Toughpower 650W金牌直出線電源簡介及測試 (5190) (2)
2013-03-07 Enermax Platimax白金認證全模組化1200W電源供應器簡介及測試 (3456) (3)
2013-03-02 全漢皇鈦極650W模組化白金電源簡介及測試 (17597) (0)
2013-02-02 VANTEC VOLTRA550模組化電源供應器簡介及測試 (2162) (1)
2013-01-28 Cooler Master新款Silent Pro Gold金牌直出線450W與550W電源簡介及測試 (8405) (6)
2012-10-24 XIGMATEK Centauro 700W模組化電源簡介及測試 (2628) (1)
2012-10-24 XIGMATEK TAURO 600W電源供應器簡介及測試 (7453) (5)
2012-10-08 鉅能80PLUS白金ASTRO PT 700W電源供應器簡介及測試 (2045) (1)
2012-10-07 帝海影隼S極致白金版1000W電源供應器簡介及測試 (3147) (2)
2012-09-29 帝海影隼S極致黃金版450W電源簡介及測試 (5477) (2)
2012-09-24 帝海影隼S極致白金版550W電源供應器簡介及測試 (8578) (11)
2012-09-02 PC POWER & COOLING SILENCER MkIII 600W簡介及測試 (1772) (1)
2012-09-01 CORSAIR第二代GS系列600W電源供應器簡介及測試 (3006) (0)
2012-08-20 CORSAIR AX1200i數位化全模組1200W電源供應器簡介及測試 (13201) (0)
2012-06-17 帝海影隼II 450W電源供應器簡介及測試 (5272) (4)
2012-06-06 Enhance Golden Commander系列500W/600W電源供應器簡介及測試 (3958) (4)
2012-04-01 Thermaltake Toughpower XT Platinum 1275W電源簡介及測試 (1938) (0)
2012-01-29 含PMBus界面的億泰興ETASIS EPAP-S860電源供應器簡介及測試 (3304) (1)
2012-01-26 Cooler Master Silent Pro Hybrid 1300W模組化電源供應器簡介及測試 (2317) (1)
2012-01-26 HEC Cougar Power 700W電源供應器簡介及測試 (2161) (6)
2012-01-26 CORSAIR HX1050模組化1050W電源供應器簡介及測試 (2315) (3)
2011-12-17 Cooler Master Silent Pro Gold 600W模組化電源供應器簡介及測試 (5574) (27)
2011-12-15 技嘉ODIN PLUS 700W電源供應器簡介及測試 (2168) (9)
2011-12-11 技嘉GREENMAX 750W電源供應器簡介及測試 (2441) (1)
2011-08-20 CORSAIR AX750模組化750W電源供應器簡介及測試 (6213) (4)
2011-08-17 CORSAIR第二代TX650V2 650W電源供應器簡介及測試 (2667) (6)
2011-08-07 十款金銀牌高效率機種測試大亂鬥 (44125) (15)
2011-07-29 [純圖片+測試]Corsair TX850 850W電源 (993) (0)
2011-07-29 [純圖片+測試]Enhance DARKKNIGHT 500W靜音電源 (1720) (1)
2011-07-29 [純圖片+測試]Hamer MIT 1000W電源 (1088) (1)
2011-07-29 [純圖片+測試]Antec Earthwatts EA-430D 430W及EA-500D 500W電源 (1971) (3)
1 23
找更多相關文章與討論